Time;durP1;ratioP1;P1;durP2;ratioP2;P2;SDS_P1;SDS_P2;PMS_P1;PMS_P2;Temp;Humidity;BMP_temperature;BMP_pressure;BME280_temperature;BME280_humidity;BME280_pressure;Samples;Min_cycle;Max_cycle;Signal;HPM_P1;HPM_P2
2023/08/16 00:04:20;;;;;;;;;;;19.30;99.90;;;;;;12359426;28;19933;-82
2023/08/16 00:10:22;;;;;;;;;;;19.20;99.90;;;;;;12355224;28;19968;-84
2023/08/16 00:16:24;;;;;;;;;;;19.30;99.90;;;;;;12345095;28;20408;-84
2023/08/16 00:22:26;;;;;;;;;;;19.30;99.90;;;;;;12363398;28;19930;-84
2023/08/16 00:28:28;;;;;;;;;;;19.30;99.90;;;;;;12267374;28;19942;-84
2023/08/16 00:34:29;;;;;;;;;;;19.20;99.90;;;;;;12290880;28;19977;-84
2023/08/16 00:40:31;;;;;;;;;;;19.10;99.90;;;;;;12270929;29;20067;-84
2023/08/16 00:46:33;;;;;;;;;;;19.10;99.90;;;;;;12273170;28;20009;-84
2023/08/16 00:52:35;;;;;;;;;;;19.00;99.90;;;;;;12260900;28;19935;-84
2023/08/16 00:58:37;;;;;;;;;;;19.00;99.90;;;;;;12259240;28;19993;-84
2023/08/16 01:04:39;;;;;;;;;;;18.90;99.90;;;;;;12285000;28;19996;-84
2023/08/16 01:10:54;;;;;;;;;;;18.90;99.90;;;;;;12273595;28;19993;-84
2023/08/16 01:16:56;;;;;;;;;;;18.60;99.90;;;;;;12274010;29;19937;-83
2023/08/16 01:23:04;;;;;;;;;;;18.60;99.90;;;;;;12272539;28;20394;-82
2023/08/16 01:29:06;;;;;;;;;;;18.70;99.90;;;;;;12264841;28;20380;-83
2023/08/16 01:35:09;;;;;;;;;;;18.70;99.90;;;;;;12281761;28;20322;-83
2023/08/16 01:41:15;;;;;;;;;;;18.50;99.90;;;;;;12264299;28;19926;-82
2023/08/16 01:47:17;;;;;;;;;;;18.50;99.90;;;;;;12274789;28;19926;-83
2023/08/16 01:53:19;;;;;;;;;;;18.40;99.90;;;;;;12271572;28;20017;-83
2023/08/16 01:59:21;;;;;;;;;;;18.40;99.90;;;;;;12299128;28;19927;-83
2023/08/16 02:05:23;;;;;;;;;;;18.40;99.90;;;;;;12304737;28;19966;-83
2023/08/16 02:11:24;;;;;;;;;;;18.40;99.90;;;;;;12291710;28;19930;-83
2023/08/16 02:17:26;;;;;;;;;;;18.60;99.90;;;;;;12290259;28;19969;-83
2023/08/16 02:23:28;;;;;;;;;;;18.50;99.90;;;;;;12284705;28;19927;-83
2023/08/16 02:29:30;;;;;;;;;;;18.40;99.90;;;;;;12345069;28;19962;-83
2023/08/16 02:35:32;;;;;;;;;;;18.40;99.90;;;;;;12354466;28;20301;-83
2023/08/16 02:41:34;;;;;;;;;;;18.40;99.90;;;;;;12346398;28;19926;-83
2023/08/16 02:47:36;;;;;;;;;;;18.30;99.90;;;;;;12350166;28;19991;-83
2023/08/16 02:53:38;;;;;;;;;;;18.50;99.90;;;;;;12359082;28;19926;-83
2023/08/16 02:59:40;;;;;;;;;;;18.50;99.90;;;;;;12339306;28;19941;-83
2023/08/16 03:05:42;;;;;;;;;;;18.40;99.90;;;;;;12342821;28;19941;-83
2023/08/16 03:11:44;;;;;;;;;;;18.40;99.90;;;;;;12346171;28;20362;-82
2023/08/16 03:17:46;;;;;;;;;;;17.80;99.90;;;;;;12355464;28;20037;-83
2023/08/16 03:23:47;;;;;;;;;;;17.50;99.90;;;;;;12347776;28;19984;-82
2023/08/16 03:29:49;;;;;;;;;;;17.80;99.90;;;;;;12328685;28;19969;-83
2023/08/16 03:35:51;;;;;;;;;;;17.60;99.90;;;;;;12359272;28;19937;-83
2023/08/16 03:41:53;;;;;;;;;;;17.50;99.90;;;;;;12363755;28;19976;-84
2023/08/16 03:47:56;;;;;;;;;;;17.60;99.90;;;;;;12335090;28;19926;-85
2023/08/16 03:53:58;;;;;;;;;;;17.60;99.90;;;;;;12367318;28;20265;-84
2023/08/16 04:00:00;;;;;;;;;;;17.60;99.90;;;;;;12340922;28;19961;-85
2023/08/16 04:06:01;;;;;;;;;;;17.50;99.90;;;;;;12336345;28;19941;-85
2023/08/16 04:12:03;;;;;;;;;;;17.70;99.90;;;;;;12356454;28;20021;-85
2023/08/16 04:18:05;;;;;;;;;;;17.90;99.90;;;;;;12354802;28;19933;-85
2023/08/16 04:24:07;;;;;;;;;;;17.70;99.90;;;;;;12349084;28;19933;-85
2023/08/16 04:30:09;;;;;;;;;;;17.40;99.90;;;;;;12352499;28;20108;-85
2023/08/16 04:36:10;;;;;;;;;;;17.30;99.90;;;;;;12372643;28;19980;-85
2023/08/16 04:42:12;;;;;;;;;;;17.60;99.90;;;;;;12346735;28;20288;-86
2023/08/16 04:48:14;;;;;;;;;;;17.40;99.90;;;;;;12350531;28;20346;-86
2023/08/16 04:54:16;;;;;;;;;;;17.40;99.90;;;;;;12366767;28;19933;-84
2023/08/16 05:00:19;;;;;;;;;;;17.70;99.90;;;;;;12353482;28;19930;-84
2023/08/16 05:06:20;;;;;;;;;;;17.60;99.90;;;;;;12360614;28;19961;-84
2023/08/16 05:12:22;;;;;;;;;;;17.60;99.90;;;;;;12357978;28;20393;-84
2023/08/16 05:18:24;;;;;;;;;;;17.80;99.90;;;;;;12360601;28;20279;-84
2023/08/16 05:24:26;;;;;;;;;;;18.00;99.90;;;;;;12344630;28;20020;-84
2023/08/16 05:30:28;;;;;;;;;;;18.00;99.90;;;;;;12374403;28;19961;-84
2023/08/16 05:36:29;;;;;;;;;;;17.90;99.90;;;;;;12364998;28;19930;-85
2023/08/16 05:42:31;;;;;;;;;;;17.80;99.90;;;;;;12352252;28;20028;-84
2023/08/16 05:48:34;;;;;;;;;;;17.80;99.90;;;;;;12357469;28;20458;-85
2023/08/16 05:54:36;;;;;;;;;;;17.80;99.90;;;;;;12359928;28;19929;-85
2023/08/16 06:00:38;;;;;;;;;;;17.90;99.90;;;;;;12343099;28;19927;-82
2023/08/16 06:06:40;;;;;;;;;;;17.80;99.90;;;;;;12345664;28;19930;-83
2023/08/16 06:12:41;;;;;;;;;;;17.60;99.90;;;;;;12344485;28;20109;-83
2023/08/16 06:18:44;;;;;;;;;;;17.80;99.90;;;;;;12374708;28;20044;-82
2023/08/16 06:24:46;;;;;;;;;;;17.90;99.90;;;;;;12349737;28;19926;-83
2023/08/16 06:30:48;;;;;;;;;;;18.10;99.90;;;;;;12355357;28;19926;-82
2023/08/16 06:36:50;;;;;;;;;;;17.80;99.90;;;;;;12356957;28;19929;-82
2023/08/16 06:42:52;;;;;;;;;;;17.80;99.90;;;;;;12348408;28;19926;-83
2023/08/16 06:48:54;;;;;;;;;;;17.80;99.90;;;;;;12361006;28;19965;-83
2023/08/16 06:54:55;;;;;;;;;;;17.80;99.90;;;;;;12367066;28;20524;-82
2023/08/16 07:00:57;;;;;;;;;;;18.20;99.90;;;;;;12345976;28;19980;-82
2023/08/16 07:06:59;;;;;;;;;;;18.00;99.90;;;;;;12350578;28;20034;-83
2023/08/16 07:13:02;;;;;;;;;;;18.00;99.90;;;;;;12351037;28;19926;-83
2023/08/16 07:19:04;;;;;;;;;;;17.60;99.90;;;;;;12367851;28;19930;-83
2023/08/16 07:25:06;;;;;;;;;;;17.30;99.90;;;;;;12372588;28;19937;-83
2023/08/16 07:31:08;;;;;;;;;;;17.30;99.90;;;;;;12347201;28;20405;-84
2023/08/16 07:37:13;;;;;;;;;;;17.50;99.90;;;;;;12346440;28;20502;-84
2023/08/16 07:43:15;;;;;;;;;;;18.00;99.90;;;;;;12355369;28;19930;-85
2023/08/16 07:49:16;;;;;;;;;;;18.40;99.90;;;;;;12349914;28;19945;-83
2023/08/16 07:55:18;;;;;;;;;;;18.20;99.90;;;;;;12344618;28;20089;-84
2023/08/16 08:01:20;;;;;;;;;;;18.40;99.90;;;;;;12334760;28;20405;-85
2023/08/16 08:07:23;;;;;;;;;;;18.50;99.90;;;;;;12358428;28;20390;-84
2023/08/16 08:13:25;;;;;;;;;;;18.60;99.90;;;;;;12366379;28;20442;-83
2023/08/16 08:19:26;;;;;;;;;;;18.70;99.90;;;;;;12370908;28;19989;-81
2023/08/16 08:25:29;;;;;;;;;;;18.70;99.90;;;;;;12347787;28;19926;-82
2023/08/16 08:31:31;;;;;;;;;;;18.50;99.90;;;;;;12349384;28;19930;-82
2023/08/16 08:37:33;;;;;;;;;;;18.70;99.90;;;;;;12392736;28;19953;-83
2023/08/16 08:43:36;;;;;;;;;;;19.40;99.90;;;;;;12429989;28;19936;-83
2023/08/16 08:49:59;;;;;;;;;;;19.80;99.90;;;;;;12426376;28;19930;-83
2023/08/16 08:56:06;;;;;;;;;;;20.00;99.90;;;;;;12417280;28;20485;-82
2023/08/16 09:02:08;;;;;;;;;;;20.20;99.90;;;;;;12354545;28;20317;-82
2023/08/16 09:08:13;;;;;;;;;;;20.30;99.90;;;;;;12354261;28;19930;-82
2023/08/16 09:14:15;;;;;;;;;;;20.70;99.90;;;;;;12371021;28;19926;-84
2023/08/16 09:20:17;;;;;;;;;;;20.70;99.90;;;;;;12404403;28;19968;-82
2023/08/16 09:26:18;;;;;;;;;;;20.50;99.90;;;;;;12363883;28;19968;-82
2023/08/16 09:32:21;;;;;;;;;;;20.20;99.90;;;;;;12370665;28;19980;-86
2023/08/16 09:38:24;;;;;;;;;;;20.70;99.90;;;;;;12352365;28;19980;-86
2023/08/16 09:44:29;;;;;;;;;;;20.80;99.90;;;;;;12367452;28;20143;-85
2023/08/16 09:50:32;;;;;;;;;;;20.60;99.90;;;;;;12364336;28;19925;-85
2023/08/16 09:56:34;;;;;;;;;;;20.50;99.90;;;;;;12363737;28;20057;-86
2023/08/16 10:02:39;;;;;;;;;;;20.50;99.90;;;;;;12360244;28;19953;-86
2023/08/16 10:08:44;;;;;;;;;;;20.50;99.90;;;;;;12372548;28;20052;-86
2023/08/16 10:14:46;;;;;;;;;;;20.70;99.90;;;;;;12355750;28;20052;-86
2023/08/16 10:20:49;;;;;;;;;;;21.00;99.90;;;;;;12390210;28;19913;-86
2023/08/16 10:26:53;;;;;;;;;;;21.10;99.90;;;;;;12406982;28;19929;-86
2023/08/16 10:32:56;;;;;;;;;;;21.20;99.90;;;;;;12370119;28;19934;-84
2023/08/16 10:38:59;;;;;;;;;;;20.90;99.90;;;;;;12363328;28;20006;-86
2023/08/16 10:45:01;;;;;;;;;;;20.60;99.90;;;;;;12358891;28;19937;-85
2023/08/16 10:51:04;;;;;;;;;;;20.40;99.90;;;;;;12366756;28;19933;-86
2023/08/16 10:57:07;;;;;;;;;;;20.40;99.90;;;;;;12368560;28;19930;-85
2023/08/16 11:03:16;;;;;;;;;;;20.30;99.90;;;;;;12361638;28;19933;-85
2023/08/16 11:09:17;;;;;;;;;;;20.30;99.90;;;;;;12352819;28;19937;-86
2023/08/16 11:15:20;;;;;;;;;;;20.80;99.90;;;;;;12354118;28;19926;-85
2023/08/16 11:21:22;;;;;;;;;;;20.70;99.90;;;;;;12355013;28;19933;-84
2023/08/16 11:27:24;;;;;;;;;;;21.00;99.90;;;;;;12348664;28;19926;-85
2023/08/16 11:33:33;;;;;;;;;;;21.20;99.90;;;;;;12370293;28;20045;-85
2023/08/16 11:39:36;;;;;;;;;;;21.10;99.90;;;;;;12366497;28;19934;-84
2023/08/16 11:45:38;;;;;;;;;;;20.70;99.90;;;;;;12368648;28;20034;-86
2023/08/16 11:51:41;;;;;;;;;;;20.60;99.90;;;;;;12379855;28;19953;-82
2023/08/16 11:57:43;;;;;;;;;;;20.50;99.90;;;;;;12360547;28;19961;-82
2023/08/16 12:03:46;;;;;;;;;;;20.80;99.90;;;;;;12367747;28;20073;-82
2023/08/16 12:09:49;;;;;;;;;;;20.70;99.90;;;;;;12359189;28;20378;-84
2023/08/16 12:15:51;;;;;;;;;;;20.80;99.90;;;;;;12366671;28;19952;-83
2023/08/16 12:21:53;;;;;;;;;;;21.30;99.90;;;;;;12360499;28;19926;-84
2023/08/16 12:27:54;;;;;;;;;;;21.10;99.90;;;;;;12359066;28;19962;-83
2023/08/16 12:33:56;;;;;;;;;;;21.10;99.90;;;;;;12345772;28;20011;-83
2023/08/16 12:39:58;;;;;;;;;;;21.10;99.90;;;;;;12347771;28;20381;-82
2023/08/16 12:46:05;;;;;;;;;;;21.30;99.90;;;;;;12350840;28;20109;-84
2023/08/16 12:52:07;;;;;;;;;;;21.20;99.90;;;;;;12345081;28;19981;-82
2023/08/16 12:58:08;;;;;;;;;;;21.50;99.90;;;;;;12337236;28;19926;-83
2023/08/16 13:04:22;;;;;;;;;;;21.50;99.90;;;;;;12374958;28;19925;-86
2023/08/16 13:10:37;;;;;;;;;;;21.30;99.90;;;;;;12376392;28;19975;-86
2023/08/16 13:16:56;;;;;;;;;;;21.50;99.90;;;;;;12366619;28;20289;-86
2023/08/16 13:23:06;;;;;;;;;;;21.40;99.90;;;;;;12351255;28;19934;-85
2023/08/16 13:29:13;;;;;;;;;;;21.80;99.90;;;;;;12343995;28;19926;-85
2023/08/16 13:35:29;;;;;;;;;;;21.80;99.90;;;;;;12350344;28;19988;-84
2023/08/16 13:41:33;;;;;;;;;;;22.00;99.90;;;;;;12348650;28;19926;-84
2023/08/16 13:47:45;;;;;;;;;;;22.20;99.90;;;;;;12375165;28;19937;-86
2023/08/16 13:53:47;;;;;;;;;;;22.40;99.90;;;;;;12368711;28;19941;-85
2023/08/16 13:59:48;;;;;;;;;;;22.40;99.90;;;;;;12355935;28;19941;-84
2023/08/16 14:05:54;;;;;;;;;;;22.40;99.90;;;;;;12365726;28;19973;-85
2023/08/16 14:11:57;;;;;;;;;;;22.40;99.90;;;;;;12365996;28;20441;-85
2023/08/16 14:17:59;;;;;;;;;;;22.20;99.90;;;;;;12372518;28;19926;-86
2023/08/16 14:24:01;;;;;;;;;;;22.30;99.90;;;;;;12348792;28;20640;-85
2023/08/16 14:30:03;;;;;;;;;;;22.40;99.90;;;;;;12365182;28;20627;-86
2023/08/16 14:36:05;;;;;;;;;;;22.50;99.90;;;;;;12370837;28;20012;-85
2023/08/16 14:42:06;;;;;;;;;;;22.20;99.90;;;;;;12343269;28;19974;-84
2023/08/16 14:48:08;;;;;;;;;;;22.00;99.90;;;;;;12361300;28;20401;-85
2023/08/16 14:54:10;;;;;;;;;;;21.90;99.90;;;;;;12358475;28;19937;-84
2023/08/16 15:00:15;;;;;;;;;;;21.60;99.90;;;;;;12338592;28;19961;-85
2023/08/16 15:06:17;;;;;;;;;;;22.00;99.90;;;;;;12345279;28;20060;-84
2023/08/16 15:12:19;;;;;;;;;;;22.00;99.90;;;;;;12344959;28;20013;-85
2023/08/16 15:18:20;;;;;;;;;;;22.00;99.90;;;;;;12368966;28;19926;-85
2023/08/16 15:24:22;;;;;;;;;;;22.00;99.90;;;;;;12340717;28;20004;-84
2023/08/16 15:30:24;;;;;;;;;;;22.20;99.90;;;;;;12319084;28;20398;-84
2023/08/16 15:36:26;;;;;;;;;;;22.10;99.90;;;;;;12346627;28;20025;-83
2023/08/16 15:42:27;;;;;;;;;;;22.20;99.90;;;;;;12355773;28;20013;-85
2023/08/16 15:48:29;;;;;;;;;;;22.20;99.90;;;;;;12339107;28;20057;-84
2023/08/16 15:54:31;;;;;;;;;;;22.30;99.90;;;;;;12358093;28;19977;-85
2023/08/16 16:00:33;;;;;;;;;;;22.20;99.90;;;;;;12362359;28;20064;-85
2023/08/16 16:06:34;;;;;;;;;;;22.10;99.90;;;;;;12334532;28;19969;-85
2023/08/16 16:12:36;;;;;;;;;;;21.80;99.90;;;;;;12338743;28;19930;-85
2023/08/16 16:18:38;;;;;;;;;;;21.60;99.90;;;;;;12356294;28;19945;-85
2023/08/16 16:24:39;;;;;;;;;;;21.50;99.90;;;;;;12344563;28;20454;-83
2023/08/16 16:30:41;;;;;;;;;;;21.30;99.90;;;;;;12342340;28;19969;-83
2023/08/16 16:36:43;;;;;;;;;;;21.20;99.90;;;;;;12350267;28;19966;-83
2023/08/16 16:42:45;;;;;;;;;;;21.10;99.90;;;;;;12338645;28;20024;-83
2023/08/16 16:48:46;;;;;;;;;;;21.30;99.90;;;;;;12372098;28;20314;-82
2023/08/16 16:54:48;;;;;;;;;;;21.30;99.90;;;;;;12359138;28;20083;-83
2023/08/16 17:00:50;;;;;;;;;;;21.30;99.90;;;;;;12340455;28;20032;-83
2023/08/16 17:06:57;;;;;;;;;;;21.20;99.90;;;;;;12368357;28;19930;-83
2023/08/16 17:12:59;;;;;;;;;;;21.10;99.90;;;;;;12354657;28;20825;-83
2023/08/16 17:19:00;;;;;;;;;;;21.00;99.90;;;;;;12362997;28;19926;-83
2023/08/16 17:25:03;;;;;;;;;;;21.10;99.90;;;;;;12349947;28;19930;-83
2023/08/16 17:31:08;;;;;;;;;;;21.20;99.90;;;;;;12354165;28;19979;-82
2023/08/16 17:37:09;;;;;;;;;;;21.20;99.90;;;;;;12346784;28;20000;-83
2023/08/16 17:43:11;;;;;;;;;;;21.30;99.90;;;;;;12375308;28;19930;-84
2023/08/16 17:49:13;;;;;;;;;;;21.20;99.90;;;;;;12362215;28;20294;-85
2023/08/16 17:55:15;;;;;;;;;;;20.90;99.90;;;;;;12370010;28;20289;-84
2023/08/16 18:01:17;;;;;;;;;;;20.40;99.90;;;;;;12375019;28;20030;-84
2023/08/16 18:07:20;;;;;;;;;;;20.00;99.90;;;;;;12349708;28;20053;-84
2023/08/16 18:13:22;;;;;;;;;;;20.00;99.90;;;;;;12364230;28;20028;-84
2023/08/16 18:19:24;;;;;;;;;;;19.80;99.90;;;;;;12367430;28;19973;-84
2023/08/16 18:25:29;;;;;;;;;;;19.70;99.90;;;;;;12346468;28;19926;-85
2023/08/16 18:31:31;;;;;;;;;;;19.60;99.90;;;;;;12345574;28;19926;-84
2023/08/16 18:37:33;;;;;;;;;;;19.50;99.90;;;;;;12367415;28;19925;-84
2023/08/16 18:43:35;;;;;;;;;;;19.40;99.90;;;;;;12370157;28;19914;-84
2023/08/16 18:49:36;;;;;;;;;;;19.30;99.90;;;;;;12433088;28;19926;-84
2023/08/16 18:55:42;;;;;;;;;;;19.20;99.90;;;;;;12364527;28;19951;-83
2023/08/16 19:01:43;;;;;;;;;;;19.10;99.90;;;;;;12351019;28;19929;-83
2023/08/16 19:07:45;;;;;;;;;;;19.10;99.90;;;;;;12347460;28;20033;-83
2023/08/16 19:13:47;;;;;;;;;;;19.00;99.90;;;;;;12373359;28;19933;-83
2023/08/16 19:19:49;;;;;;;;;;;19.00;99.90;;;;;;12380673;28;19937;-83
2023/08/16 19:25:52;;;;;;;;;;;18.90;99.90;;;;;;12352652;28;20030;-83
2023/08/16 19:31:53;;;;;;;;;;;18.80;99.90;;;;;;12355927;28;19926;-83
2023/08/16 19:37:55;;;;;;;;;;;18.80;99.90;;;;;;12340884;28;19925;-83
2023/08/16 19:43:59;;;;;;;;;;;18.80;99.90;;;;;;12344684;28;21130;-83
2023/08/16 19:50:18;;;;;;;;;;;18.80;99.90;;;;;;12338189;28;19940;-83
2023/08/16 19:56:20;;;;;;;;;;;18.70;99.90;;;;;;12342077;28;19985;-83
2023/08/16 20:02:22;;;;;;;;;;;18.70;99.90;;;;;;12343390;28;19933;-83
2023/08/16 20:08:24;;;;;;;;;;;18.60;99.90;;;;;;12326746;28;19933;-85
2023/08/16 20:14:25;;;;;;;;;;;18.50;99.90;;;;;;12355872;28;19981;-85
2023/08/16 20:20:27;;;;;;;;;;;18.50;99.90;;;;;;12344044;28;19925;-85
2023/08/16 20:26:29;;;;;;;;;;;18.50;99.90;;;;;;12352769;28;19976;-85
2023/08/16 20:32:30;;;;;;;;;;;18.50;99.90;;;;;;12361664;28;19937;-85
2023/08/16 20:38:32;;;;;;;;;;;18.40;99.90;;;;;;12359369;28;20041;-85
2023/08/16 20:44:34;;;;;;;;;;;18.40;99.90;;;;;;12361756;28;19941;-84
2023/08/16 20:50:37;;;;;;;;;;;18.40;99.90;;;;;;12370451;28;19961;-84
2023/08/16 20:56:39;;;;;;;;;;;18.30;99.90;;;;;;12415482;28;19977;-85
2023/08/16 21:02:41;;;;;;;;;;;18.30;99.90;;;;;;12411889;28;19926;-84
2023/08/16 21:08:43;;;;;;;;;;;18.30;99.90;;;;;;12418773;28;19925;-85
2023/08/16 21:14:46;;;;;;;;;;;18.30;99.90;;;;;;12381507;28;20290;-82
2023/08/16 21:20:48;;;;;;;;;;;18.20;99.90;;;;;;12360428;28;20044;-82
2023/08/16 21:26:51;;;;;;;;;;;18.20;99.90;;;;;;12338688;28;19980;-81
2023/08/16 21:32:53;;;;;;;;;;;18.20;99.90;;;;;;12360476;28;19933;-82
2023/08/16 21:38:55;;;;;;;;;;;18.30;99.90;;;;;;12356272;28;19926;-82
2023/08/16 21:44:56;;;;;;;;;;;18.20;99.90;;;;;;12356479;28;20789;-83
2023/08/16 21:50:58;;;;;;;;;;;18.20;99.90;;;;;;12373238;28;20048;-82
2023/08/16 21:57:00;;;;;;;;;;;18.20;99.90;;;;;;12353391;28;20427;-82
2023/08/16 22:03:02;;;;;;;;;;;18.20;99.90;;;;;;12371206;28;19969;-82
2023/08/16 22:09:06;;;;;;;;;;;18.20;99.90;;;;;;12357418;28;19929;-82
2023/08/16 22:15:08;;;;;;;;;;;18.10;99.90;;;;;;12360193;28;19966;-82
2023/08/16 22:21:10;;;;;;;;;;;18.00;99.90;;;;;;12357333;28;19937;-81
2023/08/16 22:27:11;;;;;;;;;;;18.00;99.90;;;;;;12367206;28;19984;-84
2023/08/16 22:33:13;;;;;;;;;;;18.00;99.90;;;;;;12369866;28;20028;-84
2023/08/16 22:39:15;;;;;;;;;;;17.90;99.90;;;;;;12357886;28;19926;-84
2023/08/16 22:45:17;;;;;;;;;;;17.90;99.90;;;;;;12365218;28;19930;-84
2023/08/16 22:51:18;;;;;;;;;;;17.90;99.90;;;;;;12370860;28;19957;-84
2023/08/16 22:57:20;;;;;;;;;;;17.80;99.90;;;;;;12353656;28;19970;-84
2023/08/16 23:03:22;;;;;;;;;;;17.80;99.90;;;;;;12355040;28;19926;-84
2023/08/16 23:09:23;;;;;;;;;;;17.70;99.90;;;;;;12361361;28;19938;-84
2023/08/16 23:15:25;;;;;;;;;;;17.70;99.90;;;;;;12367960;28;20435;-85
2023/08/16 23:21:27;;;;;;;;;;;17.70;99.90;;;;;;12362140;28;19933;-84
2023/08/16 23:27:29;;;;;;;;;;;17.70;99.90;;;;;;12347564;28;19930;-84
2023/08/16 23:33:31;;;;;;;;;;;17.60;99.90;;;;;;12341032;28;20012;-85
2023/08/16 23:39:32;;;;;;;;;;;17.60;99.90;;;;;;12358927;28;19930;-82
2023/08/16 23:45:34;;;;;;;;;;;17.60;99.90;;;;;;12357763;28;20432;-83
2023/08/16 23:51:36;;;;;;;;;;;17.60;99.90;;;;;;12365695;28;19934;-83
2023/08/16 23:57:37;;;;;;;;;;;17.40;99.90;;;;;;12374396;28;20085;-82
